createdAt,value
2016-12-05T00:00:18.674Z,1026.89
2016-12-05T00:01:27.527Z,1026.88
2016-12-05T00:02:36.395Z,1026.82
2016-12-05T00:03:45.223Z,1026.81
2016-12-05T00:04:54.083Z,1026.78
2016-12-05T00:06:02.950Z,1026.76
2016-12-05T00:07:11.791Z,1026.77
2016-12-05T00:08:20.668Z,1026.7
2016-12-05T00:09:29.528Z,1026.71
2016-12-05T00:10:38.394Z,1026.69
2016-12-05T00:11:47.255Z,1026.68
2016-12-05T00:12:56.095Z,1026.66
2016-12-05T00:14:04.953Z,1026.67
2016-12-05T00:15:13.821Z,1026.64
2016-12-05T00:16:22.661Z,1026.68
2016-12-05T00:17:31.503Z,1026.62
2016-12-05T00:18:40.370Z,1026.63
2016-12-05T00:19:49.214Z,1026.61
2016-12-05T00:20:58.050Z,1026.64
2016-12-05T00:22:06.914Z,1026.61
2016-12-05T00:23:15.764Z,1026.6
2016-12-05T00:24:24.631Z,1026.62
2016-12-05T00:25:33.475Z,1026.6
2016-12-05T00:26:42.322Z,1026.57
2016-12-05T00:27:51.185Z,1026.56
2016-12-05T00:29:00.030Z,1026.57
2016-12-05T00:30:08.876Z,1026.58
2016-12-05T00:31:17.750Z,1026.56
2016-12-05T00:32:26.601Z,1026.53
2016-12-05T00:33:35.443Z,1026.54
2016-12-05T00:34:44.344Z,1026.5
2016-12-05T00:35:53.231Z,1026.51
2016-12-05T00:37:02.080Z,1026.51
2016-12-05T00:38:10.933Z,1026.46
2016-12-05T00:39:19.766Z,1026.5
2016-12-05T00:40:28.640Z,1026.47
2016-12-05T00:41:37.493Z,1026.47
2016-12-05T00:42:46.336Z,1026.5
2016-12-05T00:43:55.196Z,1026.47
2016-12-05T00:45:04.069Z,1026.47
2016-12-05T00:46:12.914Z,1026.5
2016-12-05T00:47:21.758Z,1026.48
2016-12-05T00:48:30.624Z,1026.51
2016-12-05T00:49:39.462Z,1026.48
2016-12-05T00:50:48.320Z,1026.48
2016-12-05T00:51:57.191Z,1026.48
2016-12-05T00:53:06.028Z,1026.49
2016-12-05T00:54:14.869Z,1026.48
2016-12-05T00:55:23.739Z,1026.51
2016-12-05T00:56:32.595Z,1026.54
2016-12-05T00:57:41.432Z,1026.51
2016-12-05T00:58:50.287Z,1026.51
2016-12-05T00:59:59.141Z,1026.48
2016-12-05T01:01:07.983Z,1026.52
2016-12-05T01:02:16.855Z,1026.52
2016-12-05T01:03:25.715Z,1026.56
2016-12-05T01:04:34.557Z,1026.55
2016-12-05T01:05:43.409Z,1026.54
2016-12-05T01:06:52.246Z,1026.56
2016-12-05T01:08:01.124Z,1026.56
2016-12-05T01:09:09.979Z,1026.56
2016-12-05T01:10:18.821Z,1026.57
2016-12-05T01:11:27.675Z,1026.55
2016-12-05T01:12:36.537Z,1026.59
2016-12-05T01:13:45.402Z,1026.56
2016-12-05T01:14:54.265Z,1026.61
2016-12-05T01:16:03.125Z,1026.65
2016-12-05T01:17:11.965Z,1026.63
2016-12-05T01:18:20.812Z,1026.65
2016-12-05T01:19:29.677Z,1026.62
2016-12-05T01:20:38.532Z,1026.59
2016-12-05T01:21:47.404Z,1026.57
2016-12-05T01:22:56.236Z,1026.52
2016-12-05T01:24:05.119Z,1026.53
2016-12-05T01:25:13.986Z,1026.49
2016-12-05T01:26:22.833Z,1026.52
2016-12-05T01:27:31.686Z,1026.5
2016-12-05T01:28:40.551Z,1026.52
2016-12-05T01:29:49.393Z,1026.53
2016-12-05T01:30:58.226Z,1026.51
2016-12-05T01:32:07.087Z,1026.55
2016-12-05T01:33:15.935Z,1026.54
2016-12-05T01:34:24.775Z,1026.56
2016-12-05T01:35:33.629Z,1026.54
2016-12-05T01:36:42.472Z,1026.54
2016-12-05T01:37:51.381Z,1026.5
2016-12-05T01:39:00.230Z,1026.52
2016-12-05T01:40:09.072Z,1026.43
2016-12-05T01:41:18.052Z,1026.46
2016-12-05T01:42:26.892Z,1026.41
2016-12-05T01:43:35.737Z,1026.4
2016-12-05T01:44:44.611Z,1026.43
2016-12-05T01:45:53.455Z,1026.41
2016-12-05T01:47:02.301Z,1026.39
2016-12-05T01:48:11.155Z,1026.37
2016-12-05T01:49:20.007Z,1026.38
2016-12-05T01:50:28.839Z,1026.39
2016-12-05T01:51:37.688Z,1026.38
2016-12-05T01:52:46.563Z,1026.37
2016-12-05T01:53:55.388Z,1026.39
2016-12-05T01:55:04.256Z,1026.41
2016-12-05T01:56:13.108Z,1026.39
2016-12-05T01:57:21.947Z,1026.36
2016-12-05T01:58:30.786Z,1026.38
2016-12-05T01:59:39.652Z,1026.38
2016-12-05T02:00:48.534Z,1026.37
2016-12-05T02:01:57.365Z,1026.37
2016-12-05T02:03:06.231Z,1026.32
2016-12-05T02:04:15.087Z,1026.26
2016-12-05T02:05:23.950Z,1026.26
2016-12-05T02:06:32.795Z,1026.24
2016-12-05T02:07:41.644Z,1026.26
2016-12-05T02:08:50.510Z,1026.23
2016-12-05T02:09:59.350Z,1026.23
2016-12-05T02:11:08.517Z,1026.23
2016-12-05T02:12:17.378Z,1026.24
2016-12-05T02:13:26.231Z,1026.24
2016-12-05T02:14:35.078Z,1026.22
2016-12-05T02:15:43.971Z,1026.23
2016-12-05T02:16:52.834Z,1026.27
2016-12-05T02:18:01.670Z,1026.28
2016-12-05T02:19:10.520Z,1026.28
2016-12-05T02:20:19.355Z,1026.25
2016-12-05T02:21:28.230Z,1026.26
2016-12-05T02:22:37.108Z,1026.25
2016-12-05T02:23:45.943Z,1026.19
2016-12-05T02:24:54.797Z,1026.21
2016-12-05T02:26:03.653Z,1026.17
2016-12-05T02:27:12.503Z,1026.19
2016-12-05T02:28:21.358Z,1026.18
2016-12-05T02:29:30.267Z,1026.17
2016-12-05T02:30:39.105Z,1026.2
2016-12-05T02:31:47.956Z,1026.16
2016-12-05T02:32:56.824Z,1026.14
2016-12-05T02:34:05.655Z,1026.12
2016-12-05T02:35:14.521Z,1026.11
2016-12-05T02:36:23.350Z,1026.12
2016-12-05T02:37:32.209Z,1026.07
2016-12-05T02:38:41.065Z,1026.06
2016-12-05T02:39:49.913Z,1026.04
2016-12-05T02:40:58.765Z,1026.04
2016-12-05T02:42:07.628Z,1026.03
2016-12-05T02:43:16.466Z,1026.08
2016-12-05T02:44:25.312Z,1026.02
2016-12-05T02:45:34.173Z,1026.03
2016-12-05T02:46:43.012Z,1026.02
2016-12-05T02:47:51.846Z,1026.05
2016-12-05T02:49:00.701Z,1026.01
2016-12-05T02:50:09.562Z,1026.01
2016-12-05T02:51:18.395Z,1025.96
2016-12-05T02:52:27.260Z,1026
2016-12-05T02:53:36.113Z,1025.96
2016-12-05T02:54:44.971Z,1025.95
2016-12-05T02:55:53.828Z,1026
2016-12-05T02:57:02.703Z,1025.99
2016-12-05T02:58:11.548Z,1025.98
2016-12-05T02:59:20.400Z,1025.99
2016-12-05T03:00:29.264Z,1025.95
2016-12-05T03:01:38.099Z,1025.98
2016-12-05T03:02:46.945Z,1025.96
2016-12-05T03:03:55.783Z,1025.95
2016-12-05T03:05:04.656Z,1025.97
2016-12-05T03:06:13.531Z,1025.98
2016-12-05T03:07:22.363Z,1025.94
2016-12-05T03:08:31.208Z,1025.94
2016-12-05T03:09:40.072Z,1025.95
2016-12-05T03:10:48.913Z,1025.96
2016-12-05T03:11:57.760Z,1025.95
2016-12-05T03:13:06.632Z,1025.93
2016-12-05T03:14:15.473Z,1025.92
2016-12-05T03:15:24.346Z,1025.94
2016-12-05T03:16:33.327Z,1025.91
2016-12-05T03:17:42.178Z,1025.87
2016-12-05T03:18:51.036Z,1025.86
2016-12-05T03:19:59.874Z,1025.9
2016-12-05T03:21:08.736Z,1025.86
2016-12-05T03:22:17.606Z,1025.84
2016-12-05T03:23:26.482Z,1025.86
2016-12-05T03:24:35.326Z,1025.85
2016-12-05T03:25:44.211Z,1025.86
2016-12-05T03:26:53.055Z,1025.85
2016-12-05T03:28:01.890Z,1025.84
2016-12-05T03:29:10.741Z,1025.81
2016-12-05T03:30:19.598Z,1025.8
2016-12-05T03:31:28.439Z,1025.81
2016-12-05T03:32:37.285Z,1025.75
2016-12-05T03:33:46.117Z,1025.72
2016-12-05T03:34:54.991Z,1025.71
2016-12-05T03:36:03.845Z,1025.71
2016-12-05T03:37:12.686Z,1025.71
2016-12-05T03:38:21.535Z,1025.7
2016-12-05T03:39:30.395Z,1025.7
2016-12-05T03:40:39.227Z,1025.71
2016-12-05T03:41:48.080Z,1025.7
2016-12-05T03:42:56.960Z,1025.66
2016-12-05T03:44:05.797Z,1025.66
2016-12-05T03:45:14.648Z,1025.68
2016-12-05T03:46:23.516Z,1025.71
2016-12-05T03:47:32.378Z,1025.72
2016-12-05T03:48:41.236Z,1025.7
2016-12-05T03:49:50.083Z,1025.68
2016-12-05T03:50:58.946Z,1025.66
2016-12-05T03:52:07.810Z,1025.63
2016-12-05T03:53:16.654Z,1025.61
2016-12-05T03:54:25.490Z,1025.59
2016-12-05T03:55:34.348Z,1025.57
2016-12-05T03:56:43.192Z,1025.57
2016-12-05T03:57:52.046Z,1025.53
2016-12-05T03:59:00.911Z,1025.54
2016-12-05T04:00:09.766Z,1025.51
2016-12-05T04:01:18.586Z,1025.45
2016-12-05T04:02:27.447Z,1025.49
2016-12-05T04:03:36.291Z,1025.5
2016-12-05T04:04:45.147Z,1025.45
2016-12-05T04:05:53.995Z,1025.43
2016-12-05T04:07:02.846Z,1025.46
2016-12-05T04:08:11.720Z,1025.4
2016-12-05T04:09:20.569Z,1025.4
2016-12-05T04:10:29.406Z,1025.38
2016-12-05T04:11:38.268Z,1025.42
2016-12-05T04:12:47.119Z,1025.42
2016-12-05T04:13:55.962Z,1025.39
2016-12-05T04:15:04.825Z,1025.35
2016-12-05T04:16:13.689Z,1025.41
2016-12-05T04:17:22.553Z,1025.39
2016-12-05T04:18:31.427Z,1025.36
2016-12-05T04:19:40.274Z,1025.42
2016-12-05T04:20:49.134Z,1025.4
2016-12-05T04:21:57.985Z,1025.36
2016-12-05T04:23:06.824Z,1025.34
2016-12-05T04:24:15.676Z,1025.31
2016-12-05T04:25:24.524Z,1025.32
2016-12-05T04:26:33.359Z,1025.31
2016-12-05T04:27:42.215Z,1025.29
2016-12-05T04:28:51.079Z,1025.29
2016-12-05T04:29:59.907Z,1025.28
2016-12-05T04:31:08.757Z,1025.29
2016-12-05T04:32:17.606Z,1025.3
2016-12-05T04:33:26.465Z,1025.29
2016-12-05T04:34:35.318Z,1025.22
2016-12-05T04:35:44.153Z,1025.23
2016-12-05T04:36:53.319Z,1025.24
2016-12-05T04:38:02.179Z,1025.23
2016-12-05T04:39:11.020Z,1025.25
2016-12-05T04:40:19.865Z,1025.21
2016-12-05T04:41:28.727Z,1025.23
2016-12-05T04:42:37.572Z,1025.28
2016-12-05T04:43:46.412Z,1025.24
2016-12-05T04:44:55.286Z,1025.25
2016-12-05T04:46:04.129Z,1025.24
2016-12-05T04:47:12.957Z,1025.25
2016-12-05T04:48:21.828Z,1025.22
2016-12-05T04:49:30.683Z,1025.23
2016-12-05T04:50:39.526Z,1025.2
2016-12-05T04:51:48.392Z,1025.22
2016-12-05T04:52:57.257Z,1025.19
2016-12-05T04:54:06.084Z,1025.21
2016-12-05T04:55:14.935Z,1025.17
2016-12-05T04:56:23.792Z,1025.14
2016-12-05T04:57:32.630Z,1025.14
2016-12-05T04:58:41.468Z,1025.12
2016-12-05T04:59:50.344Z,1025.12
2016-12-05T05:00:59.189Z,1025.09
2016-12-05T05:02:08.042Z,1025.11
2016-12-05T05:03:16.868Z,1025.07
2016-12-05T05:04:25.719Z,1025.07
2016-12-05T05:05:34.594Z,1025.09
2016-12-05T05:06:43.436Z,1025.1
2016-12-05T05:07:52.283Z,1025.1
2016-12-05T05:09:01.151Z,1025.12
2016-12-05T05:10:10.001Z,1025.09
2016-12-05T05:11:18.848Z,1025.09
2016-12-05T05:12:27.718Z,1025.1
2016-12-05T05:13:36.563Z,1025.11
2016-12-05T05:14:45.387Z,1025.1
2016-12-05T05:15:54.265Z,1025.12
2016-12-05T05:17:03.120Z,1025.1
2016-12-05T05:18:12.323Z,1025.06
2016-12-05T05:19:21.166Z,1025.09
2016-12-05T05:20:30.009Z,1025.08
2016-12-05T05:21:38.913Z,1025.06
2016-12-05T05:22:47.753Z,1025.04
2016-12-05T05:23:56.591Z,1025.02
2016-12-05T05:25:05.450Z,1024.99
2016-12-05T05:26:14.303Z,1024.91
2016-12-05T05:27:23.133Z,1024.91
2016-12-05T05:28:31.995Z,1024.93
2016-12-05T05:29:40.855Z,1024.91
2016-12-05T05:30:49.703Z,1024.92
2016-12-05T05:31:58.549Z,1024.95
2016-12-05T05:33:07.398Z,1024.99
2016-12-05T05:34:16.274Z,1025
2016-12-05T05:35:25.137Z,1024.98
2016-12-05T05:36:33.974Z,1025.02
2016-12-05T05:37:42.842Z,1025
2016-12-05T05:38:51.703Z,1024.97
2016-12-05T05:40:00.549Z,1024.98
2016-12-05T05:41:09.431Z,1024.96
2016-12-05T05:42:18.333Z,1024.99
2016-12-05T05:43:27.164Z,1024.95
2016-12-05T05:44:36.012Z,1024.98
2016-12-05T05:45:44.867Z,1024.93
2016-12-05T05:46:53.726Z,1024.96
2016-12-05T05:48:02.581Z,1024.99
2016-12-05T05:49:11.431Z,1024.94
2016-12-05T05:50:20.282Z,1024.96
2016-12-05T05:51:29.156Z,1024.92
2016-12-05T05:52:37.988Z,1024.9
2016-12-05T05:53:46.828Z,1024.87
2016-12-05T05:54:55.693Z,1024.89
2016-12-05T05:56:04.549Z,1024.9
2016-12-05T05:57:13.394Z,1024.88
2016-12-05T05:58:22.259Z,1024.93
2016-12-05T05:59:31.111Z,1024.89
2016-12-05T06:00:39.971Z,1024.89
2016-12-05T06:01:48.810Z,1024.88
2016-12-05T06:02:57.701Z,1024.91
2016-12-05T06:04:06.590Z,1024.89
2016-12-05T06:05:15.434Z,1024.9
2016-12-05T06:06:24.260Z,1024.85
2016-12-05T06:07:33.168Z,1024.89
2016-12-05T06:08:42.023Z,1024.82
2016-12-05T06:09:50.866Z,1024.82
2016-12-05T06:10:59.729Z,1024.81
2016-12-05T06:12:08.913Z,1024.81
2016-12-05T06:13:17.752Z,1024.78
2016-12-05T06:14:26.611Z,1024.78
2016-12-05T06:15:35.467Z,1024.75
2016-12-05T06:16:44.327Z,1024.69
2016-12-05T06:17:53.214Z,1024.69
2016-12-05T06:19:02.037Z,1024.68
2016-12-05T06:20:10.941Z,1024.71
2016-12-05T06:21:19.794Z,1024.65
2016-12-05T06:22:28.626Z,1024.68
2016-12-05T06:23:37.517Z,1024.67
2016-12-05T06:24:46.689Z,1024.65
2016-12-05T06:25:55.537Z,1024.7
2016-12-05T06:27:04.389Z,1024.72
2016-12-05T06:28:13.250Z,1024.68
2016-12-05T06:29:22.082Z,1024.65
2016-12-05T06:30:30.939Z,1024.67
2016-12-05T06:31:39.786Z,1024.68
2016-12-05T06:32:48.638Z,1024.7
2016-12-05T06:33:57.499Z,1024.7
2016-12-05T06:35:06.323Z,1024.74
2016-12-05T06:36:15.178Z,1024.74
2016-12-05T06:37:24.067Z,1024.71
2016-12-05T06:38:32.930Z,1024.73
2016-12-05T06:39:41.812Z,1024.72
2016-12-05T06:40:50.683Z,1024.7
2016-12-05T06:41:59.554Z,1024.7
2016-12-05T06:43:08.411Z,1024.67
2016-12-05T06:44:17.287Z,1024.67
2016-12-05T06:45:26.133Z,1024.63
2016-12-05T06:46:34.983Z,1024.63
2016-12-05T06:47:43.848Z,1024.61
2016-12-05T06:48:53.034Z,1024.65
2016-12-05T06:50:01.862Z,1024.66
2016-12-05T06:51:10.730Z,1024.61
2016-12-05T06:52:19.593Z,1024.61
2016-12-05T06:53:28.438Z,1024.62
2016-12-05T06:54:37.321Z,1024.6
2016-12-05T06:55:46.191Z,1024.62
2016-12-05T06:56:55.028Z,1024.66
2016-12-05T06:58:03.880Z,1024.68
2016-12-05T06:59:12.749Z,1024.67
2016-12-05T07:00:21.604Z,1024.69
2016-12-05T07:01:30.460Z,1024.66
2016-12-05T07:02:39.305Z,1024.67
2016-12-05T07:03:48.157Z,1024.61
2016-12-05T07:04:57.031Z,1024.61
2016-12-05T07:06:05.867Z,1024.59
2016-12-05T07:07:14.726Z,1024.66
2016-12-05T07:08:23.586Z,1024.62
2016-12-05T07:09:32.426Z,1024.65
2016-12-05T07:10:41.294Z,1024.67
2016-12-05T07:11:50.169Z,1024.67
2016-12-05T07:12:59.013Z,1024.66
2016-12-05T07:14:07.871Z,1024.68
2016-12-05T07:15:16.719Z,1024.65
2016-12-05T07:16:25.568Z,1024.68
2016-12-05T07:17:34.446Z,1024.66
2016-12-05T07:18:43.283Z,1024.67
2016-12-05T07:19:52.122Z,1024.66
2016-12-05T07:21:00.993Z,1024.64
2016-12-05T07:22:09.850Z,1024.63
2016-12-05T07:23:18.691Z,1024.62
2016-12-05T07:24:27.552Z,1024.59
2016-12-05T07:25:36.412Z,1024.57
2016-12-05T07:26:45.258Z,1024.57
2016-12-05T07:27:54.429Z,1024.6
2016-12-05T07:29:03.274Z,1024.56
2016-12-05T07:30:12.131Z,1024.59
2016-12-05T07:31:20.990Z,1024.54
2016-12-05T07:32:29.819Z,1024.63
2016-12-05T07:33:38.732Z,1024.58
2016-12-05T07:34:47.594Z,1024.58
2016-12-05T07:35:56.440Z,1024.6
2016-12-05T07:37:05.308Z,1024.57
2016-12-05T07:38:14.159Z,1024.57
2016-12-05T07:39:22.996Z,1024.57
2016-12-05T07:40:31.856Z,1024.6
2016-12-05T07:41:40.714Z,1024.58
2016-12-05T07:42:49.563Z,1024.62
2016-12-05T07:43:58.418Z,1024.61
2016-12-05T07:45:07.256Z,1024.6
2016-12-05T07:46:16.109Z,1024.56
2016-12-05T07:47:24.966Z,1024.51
2016-12-05T07:48:33.838Z,1024.51
2016-12-05T07:49:42.693Z,1024.47
2016-12-05T07:50:51.565Z,1024.5
2016-12-05T07:52:00.392Z,1024.51
2016-12-05T07:53:09.242Z,1024.47
2016-12-05T07:54:18.113Z,1024.48
2016-12-05T07:55:26.964Z,1024.44
2016-12-05T07:56:35.818Z,1024.45
2016-12-05T07:57:44.670Z,1024.42
2016-12-05T07:58:53.522Z,1024.45
2016-12-05T08:00:02.387Z,1024.45
2016-12-05T08:01:11.233Z,1024.45
2016-12-05T08:02:20.093Z,1024.46
2016-12-05T08:03:28.956Z,1024.44
2016-12-05T08:04:37.809Z,1024.48
2016-12-05T08:05:46.651Z,1024.47
2016-12-05T08:06:55.528Z,1024.49
2016-12-05T08:08:04.383Z,1024.47
2016-12-05T08:09:13.225Z,1024.47
2016-12-05T08:10:22.091Z,1024.48
2016-12-05T08:11:30.969Z,1024.48
2016-12-05T08:12:39.827Z,1024.46
2016-12-05T08:13:48.672Z,1024.47
2016-12-05T08:14:57.518Z,1024.43
2016-12-05T08:16:06.407Z,1024.48
2016-12-05T08:17:15.255Z,1024.5
2016-12-05T08:18:24.092Z,1024.51
2016-12-05T08:19:32.949Z,1024.51
2016-12-05T08:20:41.805Z,1024.53
2016-12-05T08:21:50.635Z,1024.56
2016-12-05T08:22:59.500Z,1024.54
2016-12-05T08:24:08.363Z,1024.5
2016-12-05T08:25:17.212Z,1024.5
2016-12-05T08:26:26.064Z,1024.48
2016-12-05T08:27:34.913Z,1024.54
2016-12-05T08:28:43.779Z,1024.52
2016-12-05T08:29:52.632Z,1024.49
2016-12-05T08:31:01.478Z,1024.54
2016-12-05T08:32:10.364Z,1024.51
2016-12-05T08:33:19.222Z,1024.58
2016-12-05T08:34:28.056Z,1024.56
2016-12-05T08:35:37.128Z,1024.57
2016-12-05T08:36:46.008Z,1024.57
2016-12-05T08:37:54.848Z,1024.66
2016-12-05T08:39:03.696Z,1024.65
2016-12-05T08:40:12.562Z,1024.62
2016-12-05T08:41:21.419Z,1024.68
2016-12-05T08:42:30.270Z,1024.68
2016-12-05T08:43:39.144Z,1024.65
2016-12-05T08:44:48.002Z,1024.64
2016-12-05T08:45:56.834Z,1024.6
2016-12-05T08:47:05.710Z,1024.6
2016-12-05T08:48:14.565Z,1024.62
2016-12-05T08:49:23.408Z,1024.56
2016-12-05T08:50:32.275Z,1024.57
2016-12-05T08:51:41.142Z,1024.56
2016-12-05T08:52:49.978Z,1024.54
2016-12-05T08:53:58.842Z,1024.52
2016-12-05T08:55:07.694Z,1024.57
2016-12-05T08:56:16.544Z,1024.55
2016-12-05T08:57:25.396Z,1024.51
2016-12-05T08:58:34.229Z,1024.49
2016-12-05T08:59:43.089Z,1024.5
2016-12-05T09:00:51.955Z,1024.47
2016-12-05T09:02:00.797Z,1024.46
2016-12-05T09:03:09.654Z,1024.5
2016-12-05T09:04:18.517Z,1024.51
2016-12-05T09:05:27.346Z,1024.46
2016-12-05T09:06:36.182Z,1024.46
2016-12-05T09:07:45.349Z,1024.43
2016-12-05T09:08:54.187Z,1024.51
2016-12-05T09:10:03.035Z,1024.47
2016-12-05T09:11:11.885Z,1024.51
2016-12-05T09:12:20.748Z,1024.48
2016-12-05T09:13:29.620Z,1024.48
2016-12-05T09:14:38.454Z,1024.48
2016-12-05T09:15:47.302Z,1024.46
2016-12-05T09:16:56.167Z,1024.46
2016-12-05T09:18:05.011Z,1024.42
2016-12-05T09:19:13.845Z,1024.44
2016-12-05T09:20:22.744Z,1024.43
2016-12-05T09:21:31.586Z,1024.38
2016-12-05T09:22:40.431Z,1024.41
2016-12-05T09:23:49.291Z,1024.4
2016-12-05T09:24:58.140Z,1024.35
2016-12-05T09:26:06.991Z,1024.36
2016-12-05T09:27:15.826Z,1024.36
2016-12-05T09:28:24.663Z,1024.3
2016-12-05T09:29:33.523Z,1024.3
2016-12-05T09:30:42.370Z,1024.31
2016-12-05T09:31:51.214Z,1024.32
2016-12-05T09:33:00.077Z,1024.29
2016-12-05T09:34:08.938Z,1024.3
2016-12-05T09:35:17.765Z,1024.27
2016-12-05T09:36:26.627Z,1024.2
2016-12-05T09:37:35.482Z,1024.19
2016-12-05T09:38:44.328Z,1024.18
2016-12-05T09:39:53.182Z,1024.17
2016-12-05T09:41:02.056Z,1024.11
2016-12-05T09:42:10.921Z,1024.19
2016-12-05T09:43:19.763Z,1024.17
2016-12-05T09:44:28.609Z,1024.21
2016-12-05T09:45:37.471Z,1024.19
2016-12-05T09:46:46.361Z,1024.22
2016-12-05T09:47:55.185Z,1024.22
2016-12-05T09:49:04.055Z,1024.19
2016-12-05T09:50:12.911Z,1024.18
2016-12-05T09:51:22.063Z,1024.18
2016-12-05T09:52:30.906Z,1024.16
2016-12-05T09:53:39.806Z,1024.22
2016-12-05T09:54:48.663Z,1024.15
2016-12-05T09:55:57.528Z,1024.15
2016-12-05T09:57:06.373Z,1024.14
2016-12-05T09:58:15.230Z,1024.11
2016-12-05T09:59:24.093Z,1024.13
2016-12-05T10:00:32.925Z,1024.17
2016-12-05T10:01:41.778Z,1024.14
2016-12-05T10:02:50.655Z,1024.12
2016-12-05T10:03:59.501Z,1024.09
2016-12-05T10:05:08.347Z,1024.07
2016-12-05T10:06:17.235Z,1024.03
2016-12-05T10:07:26.074Z,1024.01
2016-12-05T10:08:34.901Z,1023.97
2016-12-05T10:09:43.752Z,1023.96
2016-12-05T10:10:52.611Z,1023.95
2016-12-05T10:12:01.476Z,1023.96
2016-12-05T10:13:10.329Z,1023.93
2016-12-05T10:14:19.170Z,1023.92
2016-12-05T10:15:28.042Z,1023.93
2016-12-05T10:16:36.888Z,1023.94
2016-12-05T10:17:45.752Z,1023.93
2016-12-05T10:18:54.614Z,1023.89
2016-12-05T10:20:03.472Z,1023.89
2016-12-05T10:21:12.307Z,1023.89
2016-12-05T10:22:21.165Z,1023.85
2016-12-05T10:23:30.031Z,1023.84
2016-12-05T10:24:38.874Z,1023.79
2016-12-05T10:25:47.725Z,1023.83
2016-12-05T10:26:56.572Z,1023.78
2016-12-05T10:28:05.441Z,1023.8
2016-12-05T10:29:14.301Z,1023.74
2016-12-05T10:30:23.135Z,1023.72
2016-12-05T10:31:32.011Z,1023.72
2016-12-05T10:32:40.875Z,1023.71
2016-12-05T10:33:49.722Z,1023.72
2016-12-05T10:34:58.572Z,1023.69
2016-12-05T10:36:07.436Z,1023.72
2016-12-05T10:37:16.268Z,1023.66
2016-12-05T10:38:25.142Z,1023.68
2016-12-05T10:39:34.007Z,1023.65
2016-12-05T10:40:42.880Z,1023.65
2016-12-05T10:41:51.733Z,1023.62
2016-12-05T10:43:00.589Z,1023.63
2016-12-05T10:44:09.434Z,1023.61
2016-12-05T10:45:18.257Z,1023.6
2016-12-05T10:46:27.126Z,1023.57
2016-12-05T10:47:35.982Z,1023.58
2016-12-05T10:48:44.831Z,1023.56
2016-12-05T10:49:53.693Z,1023.61
2016-12-05T10:51:02.602Z,1023.58
2016-12-05T10:52:11.806Z,1023.54
2016-12-05T10:53:20.653Z,1023.53
2016-12-05T10:54:29.527Z,1023.49
2016-12-05T10:55:38.411Z,1023.49
2016-12-05T10:56:47.260Z,1023.48
2016-12-05T10:57:56.098Z,1023.45
2016-12-05T10:59:04.953Z,1023.4
2016-12-05T11:00:13.812Z,1023.42
2016-12-05T11:01:22.644Z,1023.41
2016-12-05T11:02:31.505Z,1023.38
2016-12-05T11:03:40.367Z,1023.38
2016-12-05T11:04:49.218Z,1023.43
2016-12-05T11:05:58.059Z,1023.43
2016-12-05T11:07:07.265Z,1023.47
2016-12-05T11:08:16.110Z,1023.47
2016-12-05T11:09:24.954Z,1023.5
2016-12-05T11:10:34.158Z,1023.48
2016-12-05T11:11:43.015Z,1023.47
2016-12-05T11:12:51.886Z,1023.44
2016-12-05T11:14:00.726Z,1023.47
2016-12-05T11:15:09.589Z,1023.41
2016-12-05T11:16:18.460Z,1023.4
2016-12-05T11:17:27.294Z,1023.42
2016-12-05T11:18:36.133Z,1023.38
2016-12-05T11:19:44.988Z,1023.38
2016-12-05T11:20:53.829Z,1023.35
2016-12-05T11:22:02.669Z,1023.29
2016-12-05T11:23:11.537Z,1023.27
2016-12-05T11:24:20.380Z,1023.33
2016-12-05T11:25:29.240Z,1023.28
2016-12-05T11:26:38.084Z,1023.28
2016-12-05T11:27:46.920Z,1023.31
2016-12-05T11:28:55.806Z,1023.33
2016-12-05T11:30:04.673Z,1023.34
2016-12-05T11:31:13.591Z,1023.36
2016-12-05T11:32:22.453Z,1023.38
2016-12-05T11:33:31.312Z,1023.38
2016-12-05T11:34:40.153Z,1023.4
2016-12-05T11:35:49.023Z,1023.35
2016-12-05T11:36:57.880Z,1023.31
2016-12-05T11:38:06.735Z,1023.34
2016-12-05T11:39:15.614Z,1023.32
2016-12-05T11:40:24.791Z,1023.33
2016-12-05T11:41:33.660Z,1023.32
2016-12-05T11:42:42.511Z,1023.34
2016-12-05T11:43:51.353Z,1023.3
2016-12-05T11:45:00.203Z,1023.28
2016-12-05T11:46:09.099Z,1023.26
2016-12-05T11:47:17.932Z,1023.24
2016-12-05T11:48:26.776Z,1023.21
2016-12-05T11:49:35.641Z,1023.18
2016-12-05T11:50:44.494Z,1023.16
2016-12-05T11:51:53.363Z,1023.12
2016-12-05T11:53:02.210Z,1023.18
2016-12-05T11:54:11.061Z,1023.12
2016-12-05T11:55:19.926Z,1023.09
2016-12-05T11:56:28.800Z,1023.09
2016-12-05T11:57:37.652Z,1023.07
2016-12-05T11:58:46.504Z,1023.09
2016-12-05T11:59:55.340Z,1023.05
2016-12-05T12:01:04.190Z,1023.09
2016-12-05T12:02:13.056Z,1023.11
2016-12-05T12:03:21.893Z,1023.14
2016-12-05T12:04:30.740Z,1023.14
2016-12-05T12:05:39.597Z,1023.09
2016-12-05T12:06:48.442Z,1023.1
2016-12-05T12:07:57.312Z,1023.06
2016-12-05T12:09:06.150Z,1023.04
2016-12-05T12:10:14.996Z,1023.07
2016-12-05T12:11:23.863Z,1023.01
2016-12-05T12:12:32.715Z,1022.99
2016-12-05T12:13:41.564Z,1022.98
2016-12-05T12:14:50.424Z,1022.94
2016-12-05T12:15:59.273Z,1022.91
2016-12-05T12:17:08.105Z,1022.93
2016-12-05T12:18:16.972Z,1022.94
2016-12-05T12:19:25.832Z,1022.91
2016-12-05T12:20:34.694Z,1022.89
2016-12-05T12:21:43.555Z,1022.85
2016-12-05T12:22:52.395Z,1022.85
2016-12-05T12:24:01.259Z,1022.79
2016-12-05T12:25:10.099Z,1022.79
2016-12-05T12:26:18.940Z,1022.79
2016-12-05T12:27:27.795Z,1022.79
2016-12-05T12:28:36.647Z,1022.8
2016-12-05T12:29:45.515Z,1022.76
2016-12-05T12:30:54.380Z,1022.74
2016-12-05T12:32:03.257Z,1022.74
2016-12-05T12:33:12.103Z,1022.73
2016-12-05T12:34:20.947Z,1022.73
2016-12-05T12:35:29.803Z,1022.72
2016-12-05T12:36:38.655Z,1022.71
2016-12-05T12:37:47.495Z,1022.76
2016-12-05T12:38:56.374Z,1022.71
2016-12-05T12:40:05.217Z,1022.71
2016-12-05T12:41:14.057Z,1022.66
2016-12-05T12:42:22.915Z,1022.61
2016-12-05T12:43:31.757Z,1022.53
2016-12-05T12:44:40.598Z,1022.55
2016-12-05T12:45:49.470Z,1022.57
2016-12-05T12:46:58.336Z,1022.66
2016-12-05T12:48:07.166Z,1022.66
2016-12-05T12:49:16.027Z,1022.65
2016-12-05T12:50:24.887Z,1022.66
2016-12-05T12:51:33.754Z,1022.65
2016-12-05T12:52:42.604Z,1022.71
2016-12-05T12:53:51.436Z,1022.71
2016-12-05T12:55:00.301Z,1022.7
2016-12-05T12:56:09.163Z,1022.69
2016-12-05T12:57:18.013Z,1022.61
2016-12-05T12:58:26.876Z,1022.57
2016-12-05T12:59:35.744Z,1022.62
2016-12-05T13:00:44.577Z,1022.61
2016-12-05T13:01:53.427Z,1022.59
2016-12-05T13:03:02.290Z,1022.57
2016-12-05T13:04:11.135Z,1022.55
2016-12-05T13:05:19.990Z,1022.51
2016-12-05T13:06:28.836Z,1022.5
2016-12-05T13:07:37.699Z,1022.5
2016-12-05T13:08:46.555Z,1022.52
2016-12-05T13:09:55.390Z,1022.48
2016-12-05T13:11:04.267Z,1022.48
2016-12-05T13:12:13.126Z,1022.49
2016-12-05T13:13:21.961Z,1022.51
2016-12-05T13:14:30.818Z,1022.5
2016-12-05T13:15:39.687Z,1022.46
2016-12-05T13:16:48.529Z,1022.41
2016-12-05T13:17:57.370Z,1022.41
2016-12-05T13:19:06.228Z,1022.4
2016-12-05T13:20:15.078Z,1022.37
2016-12-05T13:21:23.943Z,1022.41
2016-12-05T13:22:32.777Z,1022.37
2016-12-05T13:23:41.626Z,1022.42
2016-12-05T13:24:50.487Z,1022.41
2016-12-05T13:25:59.325Z,1022.45
2016-12-05T13:27:08.175Z,1022.48
2016-12-05T13:28:17.039Z,1022.47
2016-12-05T13:29:25.882Z,1022.48
2016-12-05T13:30:34.717Z,1022.46
2016-12-05T13:31:43.581Z,1022.46
2016-12-05T13:32:52.427Z,1022.41
2016-12-05T13:34:01.281Z,1022.43
2016-12-05T13:35:10.131Z,1022.38
2016-12-05T13:36:18.977Z,1022.39
2016-12-05T13:37:27.860Z,1022.4
2016-12-05T13:38:36.768Z,1022.39
2016-12-05T13:39:45.610Z,1022.43
2016-12-05T13:40:54.788Z,1022.35
2016-12-05T13:42:03.635Z,1022.34
2016-12-05T13:43:12.484Z,1022.36
2016-12-05T13:44:21.335Z,1022.36
2016-12-05T13:45:30.199Z,1022.29
2016-12-05T13:46:39.042Z,1022.3
2016-12-05T13:47:47.919Z,1022.25
2016-12-05T13:48:56.784Z,1022.28
2016-12-05T13:50:05.627Z,1022.25
2016-12-05T13:51:14.487Z,1022.21
2016-12-05T13:52:23.335Z,1022.23
2016-12-05T13:53:32.194Z,1022.2
2016-12-05T13:54:41.042Z,1022.24
2016-12-05T13:55:49.882Z,1022.29